Latest Weather Observations for Bradshaw

IDD60801

Issued at 3:01 pm CST Sunday 24 May 2015 (issued every 30 minutes, with the page automatically refreshed every 10 minutes)

About weather observations | Map of weather stations | Latest weather observations for NT | Other Formats
Station Details ID: 014954 Name: BRADSHAW Lat: -14.94 Lon: 130.81 Height: 75.0 m
Data from the previous 72 hours. | See also: Recent months at Bradshaw
Date/Time
CST
Temp
°C
App
Temp
°C
Dew
Point
Rel
Hum
%
Delta-T
°C
Wind Press
QNH
hPa
Press
MSL
hPa
Rain
since 9 am
mm
Dir
 
Spd
km/h
Gust
km/h
Spd
kts
Gust
kts
24/03:00pm 31.9 27.7 -1.0 12 15.7 SE 11 20 6 11 1014.2 1013.8 0.0
24/02:30pm 31.4 26.8 -1.4 12 15.5 ESE 13 24 7 13 1014.6 - 0.0
24/02:00pm 30.1 25.3 -2.4 12 14.9 SE 13 20 7 11 1015.1 - 0.0
24/01:30pm 30.1 25.5 -1.3 13 14.7 SE 13 22 7 12 1015.6 - 0.0
24/01:00pm 29.3 23.8 -1.9 13 14.4 SE 17 22 9 12 1016.1 - 0.0
24/12:30pm 28.7 23.7 -1.4 14 13.9 E 15 24 8 13 1016.8 - 0.0
24/12:00pm 27.9 22.5 -1.1 15 13.4 E 17 24 9 13 1017.3 1017.0 0.0
24/11:30am 27.5 21.7 -1.4 15 13.3 E 19 24 10 13 1017.7 - 0.0
24/11:00am 26.6 21.6 -1.3 16 12.7 E 15 22 8 12 1017.9 - 0.0
24/10:30am 25.6 19.3 -1.2 17 12.2 E 22 32 12 17 1018.3 - 0.0
24/10:00am 25.0 19.3 -0.9 18 11.8 E 19 26 10 14 1018.5 - 0.0
24/09:30am 24.4 19.2 0.0 20 11.2 E 17 24 9 13 1018.7 - 0.0
24/09:00am 23.3 18.1 -0.2 21 10.6 E 17 28 9 15 1018.6 1018.3 0.0
24/08:30am 21.9 16.3 -0.1 23 9.9 E 19 28 10 15 1018.7 - 0.0
24/08:00am 21.1 17.0 -0.2 24 9.5 ESE 11 20 6 11 1018.7 - 0.0
24/07:30am 20.2 16.1 0.1 26 8.9 E 11 19 6 10 1018.3 - 0.0
24/07:00am 18.8 15.1 -0.1 28 8.3 ESE 9 13 5 7 1018.0 - 0.0
24/06:30am 19.7 16.0 0.2 27 8.7 E 9 13 5 7 1017.8 - 0.0
24/06:00am 17.4 15.6 1.0 33 7.2 CALM 0 0 0 0 1017.4 1017.1 0.0
24/05:30am 17.4 14.9 1.8 35 7.0 SW 4 9 2 5 1017.5 - 0.0
24/05:00am 17.4 15.7 1.8 35 7.0 CALM 0 0 0 0 1017.2 - 0.0
24/04:30am 18.5 16.8 1.9 33 7.5 CALM 0 0 0 0 1016.9 - 0.0
24/04:00am 20.0 17.0 1.9 30 8.3 NNE 7 11 4 6 1016.9 - 0.0
24/03:30am 20.9 17.5 1.7 28 8.9 ESE 9 15 5 8 1017.0 - 0.0
24/03:00am 21.5 17.8 2.2 28 9.0 ESE 11 17 6 9 1017.1 1016.8 0.0
24/02:30am 22.1 18.4 2.2 27 9.4 ESE 11 20 6 11 1017.1 - 0.0
24/02:00am 21.2 18.4 5.1 35 8.0 ENE 9 11 5 6 1017.0 - 0.0
24/01:30am 20.0 18.6 7.1 43 6.6 ENE 4 7 2 4 1017.0 - 0.0
24/01:00am 17.4 16.6 6.3 48 5.5 CALM 0 0 0 0 1017.0 - 0.0
24/12:30am 17.9 16.9 5.8 45 5.9 CALM 0 0 0 0 1017.0 - 0.0
24/12:00am 18.7 17.7 5.5 42 6.5 CALM 0 0 0 0 1016.9 1016.6 0.0
 
Date/Time
CST
Temp
°C
App
Temp
°C
Dew
Point
Rel
Hum
%
Delta-T
°C
Wind Press
QNH
hPa
Press
MSL
hPa
Rain
since 9 am
mm
Dir
 
Spd
km/h
Gust
km/h
Spd
kts
Gust
kts
23/11:30pm 19.0 18.0 5.8 42 6.5 CALM 0 0 0 0 1017.0 - 0.0
23/11:00pm 19.0 18.1 6.1 43 6.4 CALM 0 0 0 0 1016.9 - 0.0
23/10:30pm 19.7 18.7 5.7 40 6.9 CALM 0 0 0 0 1017.0 - 0.0
23/10:00pm 21.3 20.2 5.2 35 8.0 CALM 0 0 0 0 1017.0 - 0.0
23/09:30pm 21.2 19.0 5.1 35 8.0 NW 6 7 3 4 1016.9 - 0.0
23/09:00pm 21.5 19.0 5.0 34 8.1 SSW 7 9 4 5 1016.8 1016.5 0.0
23/08:30pm 22.0 19.6 5.4 34 8.3 S 7 9 4 5 1016.5 - 0.0
23/08:00pm 23.1 21.9 4.6 30 9.2 CALM 0 0 0 0 1016.2 - 0.0
23/07:30pm 24.8 23.4 3.5 25 10.5 CALM 0 0 0 0 1015.7 - 0.0
23/07:00pm 26.8 24.3 4.0 23 11.5 SSE 6 7 3 4 1015.3 - 0.0
23/06:30pm 28.5 25.0 3.4 20 12.6 S 11 17 6 9 1015.0 - 0.0
23/06:00pm 30.1 25.4 3.2 18 13.6 S 17 22 9 12 1014.8 1014.4 0.0
23/05:30pm 31.3 26.6 3.4 17 14.3 SSE 17 20 9 11 1014.6 - 0.0
23/05:00pm 31.8 27.2 3.8 17 14.5 SSE 17 24 9 13 1014.4 - 0.0
23/04:30pm 32.3 28.2 4.2 17 14.7 SE 15 20 8 11 1014.2 - 0.0
23/04:00pm 32.4 28.6 5.8 19 14.3 ESE 15 20 8 11 1014.2 - 0.0
23/03:30pm 31.3 27.0 3.4 17 14.3 ESE 15 20 8 11 1014.5 - 0.0
23/03:00pm 31.6 27.0 3.6 17 14.4 SSE 17 26 9 14 1014.9 1014.6 0.0
23/02:30pm 30.7 26.3 2.9 17 14.1 ESE 15 20 8 11 1015.3 - 0.0
23/02:00pm 31.1 27.0 2.3 16 14.5 E 13 24 7 13 1015.8 - 0.0
23/01:30pm 30.3 25.4 1.7 16 14.1 E 17 24 9 13 1016.4 - 0.0
23/01:00pm 30.3 26.1 1.7 16 14.1 SE 13 30 7 16 1017.1 - 0.0
23/12:30pm 29.7 24.3 1.2 16 13.9 SE 19 22 10 12 1017.6 - 0.0
23/12:00pm 28.2 23.0 0.0 16 13.3 SE 17 24 9 13 1018.2 1017.9 0.0
23/11:30am 27.3 22.5 0.1 17 12.8 E 15 26 8 14 1018.8 - 0.0
23/11:00am 26.6 20.9 -0.4 17 12.5 SE 19 30 10 16 1019.4 - 0.0
23/10:30am 26.4 21.1 -0.6 17 12.5 SE 17 24 9 13 1019.6 - 0.0
23/10:00am 25.1 19.8 -0.9 18 11.8 ESE 17 26 9 14 1019.8 - 0.0
23/09:30am 24.3 17.9 -1.5 18 11.5 ESE 22 32 12 17 1020.1 - 0.0
23/09:00am 23.6 18.1 -2.1 18 11.2 ESE 17 28 9 15 1020.1 1019.8 0.0
23/08:30am 22.9 17.6 -0.6 21 10.5 E 17 24 9 13 1020.0 - 0.0
23/08:00am 22.2 18.8 1.8 26 9.5 E 9 13 5 7 1020.0 - 0.0
23/07:30am 21.6 17.0 1.8 27 9.2 ESE 15 22 8 12 1019.7 - 0.0
23/07:00am 21.2 16.9 3.0 30 8.6 ESE 15 20 8 11 1019.5 - 0.0
23/06:30am 21.6 17.0 3.8 31 8.6 ESE 17 24 9 13 1019.2 - 0.0
23/06:00am 21.7 18.0 4.3 32 8.5 ESE 13 19 7 10 1018.8 1018.5 0.0
23/05:30am 22.0 18.4 5.0 33 8.4 E 13 17 7 9 1018.5 - 0.0
23/05:00am 22.3 18.9 5.7 34 8.4 ESE 13 20 7 11 1018.4 - 0.0
23/04:30am 22.7 19.3 6.0 34 8.5 ESE 13 20 7 11 1018.1 - 0.0
23/04:00am 22.9 20.4 6.6 35 8.4 ESE 9 19 5 10 1017.9 - 0.0
23/03:30am 22.9 21.0 6.6 35 8.4 S 6 9 3 5 1017.8 - 0.0
23/03:00am 23.7 21.3 6.9 34 8.7 ESE 9 13 5 7 1017.9 1017.6 0.0
23/02:30am 24.2 22.3 7.4 34 8.8 ESE 7 13 4 7 1017.7 - 0.0
23/02:00am 24.7 22.5 7.8 34 9.0 SSE 9 17 5 9 1017.7 - 0.0
23/01:30am 25.5 23.0 8.1 33 9.3 SE 11 20 6 11 1017.5 - 0.0
23/01:00am 26.2 22.1 8.7 33 9.5 E 20 28 11 15 1017.4 - 0.0
23/12:30am 26.3 23.4 10.9 38 8.7 ESE 17 22 9 12 1017.4 - 0.0
23/12:00am 26.8 23.7 11.7 39 8.7 E 19 28 10 15 1017.3 1017.0 0.0
 
Date/Time
CST
Temp
°C
App
Temp
°C
Dew
Point
Rel
Hum
%
Delta-T
°C
Wind Press
QNH
hPa
Press
MSL
hPa
Rain
since 9 am
mm
Dir
 
Spd
km/h
Gust
km/h
Spd
kts
Gust
kts
22/11:30pm 27.2 24.5 11.7 38 8.9 E 17 24 9 13 1017.5 - 0.0
22/11:00pm 27.5 24.9 11.9 38 9.0 E 17 20 9 11 1017.5 - 0.0
22/10:30pm 27.9 25.3 11.9 37 9.3 E 17 22 9 12 1017.5 - 0.0
22/10:00pm 28.3 26.0 11.8 36 9.6 E 15 20 8 11 1017.4 - 0.0
22/09:30pm 28.1 26.6 12.0 36 9.3 E 11 15 6 8 1017.3 - 0.0
22/09:00pm 28.9 26.6 11.9 35 9.9 E 15 19 8 10 1017.2 1016.9 0.0
22/08:30pm 26.9 26.3 11.8 39 8.7 ESE 6 9 3 5 1017.0 - 0.0
22/08:00pm 28.2 27.3 11.3 35 9.7 ESE 7 9 4 5 1016.5 - 0.0
22/07:30pm 29.1 27.9 11.6 33 10.1 SE 9 13 5 7 1016.3 - 0.0
22/07:00pm 30.3 28.8 11.8 32 10.8 E 11 15 6 8 1015.8 - 0.0
22/06:30pm 31.0 29.0 11.4 30 11.4 E 13 19 7 10 1015.5 - 0.0
22/06:00pm 31.8 28.9 11.0 28 12.1 E 17 22 9 12 1015.2 1014.9 0.0
22/05:30pm 32.5 30.0 11.1 27 12.5 E 15 24 8 13 1014.8 - 0.0
22/04:00pm 33.2 31.9 11.1 26 12.9 E 9 17 5 9 1014.5 - 0.0
22/03:30pm 33.6 30.4 12.0 27 12.8 SE 20 28 11 15 1014.7 - 0.0
22/03:00pm 33.3 30.8 11.2 26 13.0 ESE 15 24 8 13 1015.0 1014.7 0.0
22/02:30pm 32.7 29.9 11.3 27 12.5 ESE 17 30 9 16 1015.3 - 0.0
22/02:00pm 33.2 31.6 11.7 27 12.7 NE 11 19 6 10 1015.7 - 0.0
22/01:30pm 33.0 31.6 12.1 28 12.4 ESE 11 17 6 9 1016.4 - 0.0
22/01:00pm 31.8 29.3 11.0 28 12.1 SSE 15 24 8 13 1016.8 - 0.0
22/12:30pm 30.8 27.8 10.7 29 11.6 ESE 17 26 9 14 1017.3 - 0.0
22/12:00pm 30.5 28.2 10.5 29 11.4 E 13 20 7 11 1017.8 1017.5 0.0
22/11:30am 29.9 26.7 9.9 29 11.3 SE 17 26 9 14 1018.2 - 0.0
22/11:00am 29.7 26.5 9.8 29 11.2 ESE 17 24 9 13 1018.5 - 0.0
22/10:30am 28.4 24.6 9.2 30 10.7 ESE 19 28 10 15 1018.9 - 0.0
22/10:00am 27.9 24.4 8.7 30 10.5 ESE 17 28 9 15 1019.1 - 0.0
22/09:30am 27.6 23.6 9.0 31 10.2 ESE 20 28 11 15 1019.0 - 0.0
22/09:00am 26.9 23.3 8.4 31 10.0 ESE 17 26 9 14 1018.8 1018.5 0.0
22/08:30am 26.6 22.9 8.1 31 10.0 ESE 17 24 9 13 1018.4 - 0.0
22/08:00am 26.3 23.9 8.8 33 9.5 ESE 11 17 6 9 1018.4 - 0.0
22/07:30am 25.7 22.7 9.1 35 9.1 E 15 24 8 13 1017.9 - 0.0
22/07:00am 25.8 22.4 9.2 35 9.1 E 17 24 9 13 1017.3 - 0.0
22/06:30am 25.9 24.2 9.7 36 9.0 ENE 9 17 5 9 1017.0 - 0.0
22/06:00am 26.1 25.7 9.9 36 9.0 ESE 2 9 1 5 1016.9 1016.6 0.0
22/05:30am 26.7 25.2 10.4 36 9.2 E 9 17 5 9 1016.7 - 0.0
22/05:00am 27.2 24.6 10.8 36 9.3 E 15 22 8 12 1016.5 - 0.0
22/04:30am 26.9 26.5 12.5 40 8.4 NNE 6 11 3 6 1016.2 - 0.0
22/04:00am 27.3 26.6 13.3 42 8.3 ESE 9 17 5 9 1016.1 - 0.0
22/03:30am 27.7 26.0 13.6 42 8.4 ESE 15 26 8 14 1016.0 - 0.0
22/03:00am 28.0 26.5 14.3 43 8.2 E 15 26 8 14 1015.9 1015.6 0.0
22/02:30am 27.1 28.4 15.1 47 7.3 ENE 2 7 1 4 1016.0 - 0.0
22/02:00am 27.4 24.9 15.1 47 7.5 SSW 22 28 12 15 1015.9 - 0.0
22/01:30am 28.4 28.2 14.6 43 8.4 NE 9 13 5 7 1015.7 - 0.0
22/01:00am 28.7 28.2 14.9 43 8.4 NE 11 13 6 7 1015.7 - 0.0
22/12:30am 29.0 28.8 14.8 42 8.6 NE 9 13 5 7 1015.8 - 0.0
22/12:00am 28.7 28.4 14.5 42 8.6 ENE 9 13 5 7 1015.9 1015.6 0.0
 
Date/Time
CST
Temp
°C
App
Temp
°C
Dew
Point
Rel
Hum
%
Delta-T
°C
Wind Press
QNH
hPa
Press
MSL
hPa
Rain
since 9 am
mm
Dir
 
Spd
km/h
Gust
km/h
Spd
kts
Gust
kts
21/11:30pm 27.8 27.6 14.8 45 7.9 E 9 11 5 6 1016.0 - 0.0
21/11:00pm 27.5 28.0 15.5 48 7.3 NNE 7 9 4 5 1015.8 - 0.0
21/10:30pm 27.4 27.6 14.8 46 7.6 NE 7 9 4 5 1015.8 - 0.0
21/10:00pm 26.6 27.0 14.7 48 7.2 NNE 6 9 3 5 1015.7 - 0.0
21/09:30pm 27.9 29.3 14.5 44 8.1 CALM 0 6 0 3 1015.7 - 0.0
21/09:00pm 28.9 29.7 14.7 42 8.6 E 4 6 2 3 1015.5 1015.2 0.0
21/08:30pm 29.3 30.3 13.1 37 9.6 CALM 0 0 0 0 1015.1 - 0.0
21/08:00pm 31.2 31.3 13.9 35 10.5 E 6 7 3 4 1014.7 - 0.0
21/07:30pm 32.2 32.1 13.9 33 11.1 ENE 7 9 4 5 1014.5 - 0.0
21/07:00pm 33.1 32.2 13.7 31 11.8 E 11 15 6 8 1014.4 - 0.0
21/06:30pm 33.9 32.9 13.4 29 12.5 E 11 20 6 11 1014.1 - 0.0
21/06:00pm 34.5 33.1 13.3 27 12.9 E 13 19 7 10 1013.8 1013.4 0.0
21/05:30pm 35.2 32.8 12.8 26 13.6 E 17 22 9 12 1013.3 - 0.0
21/05:00pm 35.1 33.7 12.1 25 13.8 ESE 11 19 6 10 1013.1 - 0.0
21/04:30pm 36.1 33.6 12.3 24 14.3 E 17 24 9 13 1013.0 - 0.0
21/04:00pm 36.6 33.5 12.1 23 14.8 ENE 20 30 11 16 1012.8 - 0.0
21/03:30pm 35.9 32.2 11.5 23 14.5 ESE 22 28 12 15 1013.0 - 0.0

Other Formats:

Comma delimited format used in spreadsheet applications
http://www.bom.gov.au/fwo/IDD60801/IDD60801.94130.axf

JavaScript Object Notation format (JSON) in row-major order
http://www.bom.gov.au/fwo/IDD60801/IDD60801.94130.json